PWSweather.com
Personal Weather Stations
Station Observations
SHAHALMS1
Eftra, Falkenberg, HA

EftraFalkenberg, HA

Lat: 56.85, Lon: 12.65

Elevation: 140

Station Type:

http://hem.passagen.se/risarp101

High Low Average
Temperature 36.3°F2.4°C 28.4°F-2.0°C 32.9°F0.5°C
Dew Point 29.4°F-1.4°C 18.6°F-7.4°C 22.5°F-5.3°C
Winds 14.0 mph 22.5 kmh Calm Calm 7.0 mph SE11.3 kmh SE
Wind Gusts 31.1 mph50.1 kmh -- 14.0 mph22.5 kmh
Humidity 83% 53% 66%
Pressure 30.86 in1045.0 mb 30.36 in1028.1 mb -
Precipitation 0.00 in0.0 mm - -
Hour Temp Dew Point Humidity Winds Wind Gusts Pressure Precip Precip Rate Daily Precip Total
12:00 AM 34.0°F1.1°C 29.4°F-1.4°C 83% 9.4 mph E15.1 kmh E 17.2 mph27.7 kmh 30.36 in1028.1 mb 0.00 in0.0 mm 0.00 in0.0 mm 0.00 in0.0 mm
12:15 AM 33.6°F0.9°C 28.1°F-2.2°C 80% 13.0 mph E20.9 kmh E 30.8 mph49.6 kmh 30.36 in1028.1 mb 0.00 in0.0 mm 0.00 in0.0 mm 0.00 in0.0 mm
12:30 AM 33.3°F0.7°C 27.1°F-2.7°C 78% 12.9 mph E20.8 kmh E 31.1 mph50.1 kmh 30.39 in1029.1 mb 0.00 in0.0 mm 0.00 in0.0 mm 0.00 in0.0 mm
12:45 AM 33.1°F0.6°C 26.7°F-2.9°C 77% 13.6 mph E21.9 kmh E 27.6 mph44.4 kmh 30.39 in1029.1 mb 0.00 in0.0 mm 0.00 in0.0 mm 0.00 in0.0 mm
01:00 AM 32.9°F0.5°C 26.2°F-3.2°C 76% 12.2 mph E19.6 kmh E 20.0 mph32.2 kmh 30.45 in1031.2 mb 0.00 in0.0 mm 0.00 in0.0 mm 0.00 in0.0 mm
01:15 AM 32.4°F0.2°C 25.3°F-3.7°C 75% 12.1 mph E19.5 kmh E 21.1 mph34.0 kmh 30.42 in1030.1 mb 0.00 in0.0 mm 0.00 in0.0 mm 0.00 in0.0 mm
01:30 AM 32.0°F0.0°C 25.0°F-3.9°C 75% 10.7 mph E17.2 kmh E 23.6 mph38.0 kmh 30.45 in1031.2 mb 0.00 in0.0 mm 0.00 in0.0 mm 0.00 in0.0 mm
01:45 AM 31.8°F-0.1°C 24.8°F-4.0°C 75% 14.0 mph E22.5 kmh E 27.9 mph44.9 kmh 30.48 in1032.2 mb 0.00 in0.0 mm 0.00 in0.0 mm 0.00 in0.0 mm
02:00 AM 31.5°F-0.3°C 24.4°F-4.2°C 75% 12.6 mph E20.3 kmh E 30.4 mph48.9 kmh 30.48 in1032.2 mb 0.00 in0.0 mm 0.00 in0.0 mm 0.00 in0.0 mm
02:15 AM 31.3°F-0.4°C 24.0°F-4.4°C 74% 12.9 mph E20.8 kmh E 25.4 mph40.9 kmh 30.45 in1031.2 mb 0.00 in0.0 mm 0.00 in0.0 mm 0.00 in0.0 mm
02:30 AM 31.3°F-0.4°C 24.0°F-4.4°C 74% 13.6 mph E21.9 kmh E 24.3 mph39.1 kmh 30.48 in1032.2 mb 0.00 in0.0 mm 0.00 in0.0 mm 0.00 in0.0 mm
02:45 AM 31.5°F-0.3°C 24.1°F-4.4°C 74% 13.6 mph E21.9 kmh E 26.8 mph43.1 kmh 30.51 in1033.2 mb 0.00 in0.0 mm 0.00 in0.0 mm 0.00 in0.0 mm
03:00 AM 31.5°F-0.3°C 24.4°F-4.2°C 75% 13.2 mph E21.2 kmh E 24.7 mph39.8 kmh 30.54 in1034.2 mb 0.00 in0.0 mm 0.00 in0.0 mm 0.00 in0.0 mm
03:15 AM 31.6°F-0.2°C 25.3°F-3.7°C 77% 9.8 mph E15.8 kmh E 17.2 mph27.7 kmh 30.54 in1034.2 mb 0.00 in0.0 mm 0.00 in0.0 mm 0.00 in0.0 mm
03:30 AM 31.3°F-0.4°C 25.2°F-3.8°C 78% 9.6 mph E15.4 kmh E 16.8 mph27.0 kmh 30.51 in1033.2 mb 0.00 in0.0 mm 0.00 in0.0 mm 0.00 in0.0 mm
03:45 AM 31.1°F-0.5°C 25.0°F-3.9°C 78% 7.4 mph E11.9 kmh E 14.7 mph23.7 kmh 30.57 in1035.2 mb 0.00 in0.0 mm 0.00 in0.0 mm 0.00 in0.0 mm
04:00 AM 30.9°F-0.6°C 24.9°F-3.9°C 78% 6.0 mph E9.7 kmh E 11.8 mph19.0 kmh 30.60 in1036.2 mb 0.00 in0.0 mm 0.00 in0.0 mm 0.00 in0.0 mm
04:15 AM 30.7°F-0.7°C 25.0°F-3.9°C 79% 5.6 mph E9.0 kmh E 10.0 mph16.1 kmh 30.60 in1036.2 mb 0.00 in0.0 mm 0.00 in0.0 mm 0.00 in0.0 mm
04:27 AM 30.7°F-0.7°C 25.0°F-3.9°C 79% 7.5 mph E12.1 kmh E 9.4 mph15.1 kmh 30.57 in1035.2 mb 0.00 in0.0 mm 0.00 in0.0 mm 0.00 in0.0 mm
04:28 AM 30.7°F-0.7°C 25.0°F-3.9°C 79% 8.2 mph E13.2 kmh E 11.8 mph19.0 kmh 30.57 in1035.2 mb 0.00 in0.0 mm 0.00 in0.0 mm 0.00 in0.0 mm
04:29 AM 30.7°F-0.7°C 25.0°F-3.9°C 79% 7.2 mph E11.6 kmh E 11.8 mph19.0 kmh 30.57 in1035.2 mb 0.00 in0.0 mm 0.00 in0.0 mm 0.00 in0.0 mm
04:30 AM 30.7°F-0.7°C 25.0°F-3.9°C 79% 6.6 mph E10.6 kmh E 11.8 mph19.0 kmh 30.57 in1035.2 mb 0.00 in0.0 mm 0.00 in0.0 mm 0.00 in0.0 mm
04:31 AM 30.9°F-0.6°C 25.2°F-3.8°C 79% 6.9 mph E11.1 kmh E 11.8 mph19.0 kmh 30.57 in1035.2 mb 0.00 in0.0 mm 0.00 in0.0 mm 0.00 in0.0 mm
04:45 AM 30.7°F-0.7°C 24.7°F-4.1°C 78% 2.2 mph E3.5 kmh E 9.3 mph15.0 kmh 30.63 in1037.3 mb 0.00 in0.0 mm 0.00 in0.0 mm 0.00 in0.0 mm
05:00 AM 30.2°F-1.0°C 24.2°F-4.3°C 78% 0.1 mph ENE0.2 kmh ENE 2.5 mph4.0 kmh 30.63 in1037.3 mb 0.00 in0.0 mm 0.00 in0.0 mm 0.00 in0.0 mm
05:15 AM 30.0°F-1.1°C 23.7°F-4.6°C 77% 8.0 mph E12.9 kmh E 21.1 mph34.0 kmh 30.63 in1037.3 mb 0.00 in0.0 mm 0.00 in0.0 mm 0.00 in0.0 mm
05:30 AM 29.8°F-1.2°C 23.5°F-4.7°C 77% 7.2 mph E11.6 kmh E 14.0 mph22.5 kmh 30.63 in1037.3 mb 0.00 in0.0 mm 0.00 in0.0 mm 0.00 in0.0 mm
05:45 AM 29.7°F-1.3°C 23.3°F-4.8°C 77% 7.1 mph E11.4 kmh E 12.2 mph19.6 kmh 30.63 in1037.3 mb 0.00 in0.0 mm 0.00 in0.0 mm 0.00 in0.0 mm
06:00 AM 29.5°F-1.4°C 22.5°F-5.3°C 75% 8.7 mph E14.0 kmh E 14.3 mph23.0 kmh 30.63 in1037.3 mb 0.00 in0.0 mm 0.00 in0.0 mm 0.00 in0.0 mm
06:15 AM 29.3°F-1.5°C 21.1°F-6.1°C 71% 8.2 mph E13.2 kmh E 16.5 mph26.6 kmh 30.66 in1038.3 mb 0.00 in0.0 mm 0.00 in0.0 mm 0.00 in0.0 mm
06:30 AM 29.1°F-1.6°C 20.2°F-6.6°C 69% 9.7 mph E15.6 kmh E 17.5 mph28.2 kmh 30.66 in1038.3 mb 0.00 in0.0 mm 0.00 in0.0 mm 0.00 in0.0 mm
06:45 AM 28.9°F-1.7°C 19.7°F-6.8°C 68% 8.6 mph E13.8 kmh E 14.3 mph23.0 kmh 30.66 in1038.3 mb 0.00 in0.0 mm 0.00 in0.0 mm 0.00 in0.0 mm
07:00 AM 28.8°F-1.8°C 19.5°F-6.9°C 68% 9.1 mph E14.6 kmh E 15.7 mph25.3 kmh 30.63 in1037.3 mb 0.00 in0.0 mm 0.00 in0.0 mm 0.00 in0.0 mm
07:15 AM 28.6°F-1.9°C 19.4°F-7.0°C 68% 8.6 mph E13.8 kmh E 14.0 mph22.5 kmh 30.66 in1038.3 mb 0.00 in0.0 mm 0.00 in0.0 mm 0.00 in0.0 mm
07:30 AM 28.4°F-2.0°C 19.2°F-7.1°C 68% 8.0 mph E12.9 kmh E 15.4 mph24.8 kmh 30.68 in1038.9 mb 0.00 in0.0 mm 0.00 in0.0 mm 0.00 in0.0 mm
07:45 AM 28.6°F-1.9°C 19.0°F-7.2°C 67% 9.0 mph E14.5 kmh E 15.7 mph25.3 kmh 30.68 in1038.9 mb 0.00 in0.0 mm 0.00 in0.0 mm 0.00 in0.0 mm
08:00 AM 28.9°F-1.7°C 19.0°F-7.2°C 66% 8.5 mph E13.7 kmh E 12.9 mph20.8 kmh 30.71 in1040.0 mb 0.00 in0.0 mm 0.00 in0.0 mm 0.00 in0.0 mm
08:15 AM 28.9°F-1.7°C 18.6°F-7.4°C 65% 6.9 mph E11.1 kmh E 10.4 mph16.7 kmh 30.71 in1040.0 mb 0.00 in0.0 mm 0.00 in0.0 mm 0.00 in0.0 mm
08:30 AM 29.3°F-1.5°C 19.3°F-7.1°C 66% 6.4 mph E10.3 kmh E 10.4 mph16.7 kmh 30.71 in1040.0 mb 0.00 in0.0 mm 0.00 in0.0 mm 0.00 in0.0 mm
08:45 AM 29.8°F-1.2°C 19.5°F-6.9°C 65% 6.3 mph E10.1 kmh E 12.2 mph19.6 kmh 30.74 in1041.0 mb 0.00 in0.0 mm 0.00 in0.0 mm 0.00 in0.0 mm
09:00 AM 30.2°F-1.0°C 19.5°F-6.9°C 64% 8.1 mph E13.0 kmh E 15.7 mph25.3 kmh 30.74 in1041.0 mb 0.00 in0.0 mm 0.00 in0.0 mm 0.00 in0.0 mm
09:15 AM 30.4°F-0.9°C 19.6°F-6.9°C 64% 7.8 mph E12.6 kmh E 13.6 mph21.9 kmh 30.74 in1041.0 mb 0.00 in0.0 mm 0.00 in0.0 mm 0.00 in0.0 mm
09:30 AM 31.1°F-0.5°C 20.0°F-6.7°C 63% 9.1 mph E14.6 kmh E 15.7 mph25.3 kmh 30.77 in1042.0 mb 0.00 in0.0 mm 0.00 in0.0 mm 0.00 in0.0 mm
09:45 AM 31.1°F-0.5°C 20.0°F-6.7°C 63% 8.0 mph E12.9 kmh E 13.6 mph21.9 kmh 30.77 in1042.0 mb 0.00 in0.0 mm 0.00 in0.0 mm 0.00 in0.0 mm
10:00 AM 32.0°F0.0°C 20.1°F-6.6°C 61% 8.2 mph E13.2 kmh E 16.5 mph26.6 kmh 30.77 in1042.0 mb 0.00 in0.0 mm 0.00 in0.0 mm 0.00 in0.0 mm
10:15 AM 32.4°F0.2°C 20.4°F-6.4°C 61% 6.8 mph ESE10.9 kmh ESE 14.0 mph22.5 kmh 30.77 in1042.0 mb 0.00 in0.0 mm 0.00 in0.0 mm 0.00 in0.0 mm
10:30 AM 32.9°F0.5°C 20.5°F-6.4°C 60% 7.9 mph SE12.7 kmh SE 14.3 mph23.0 kmh 30.77 in1042.0 mb 0.00 in0.0 mm 0.00 in0.0 mm 0.00 in0.0 mm
10:45 AM 33.1°F0.6°C 20.3°F-6.5°C 59% 7.6 mph ESE12.2 kmh ESE 15.4 mph24.8 kmh 30.77 in1042.0 mb 0.00 in0.0 mm 0.00 in0.0 mm 0.00 in0.0 mm
11:00 AM 33.3°F0.7°C 20.5°F-6.4°C 59% 7.7 mph ESE12.4 kmh ESE 16.5 mph26.6 kmh 30.77 in1042.0 mb 0.00 in0.0 mm 0.00 in0.0 mm 0.00 in0.0 mm
11:15 AM 33.4°F0.8°C 20.2°F-6.6°C 58% 7.9 mph SE12.7 kmh SE 17.5 mph28.2 kmh 30.80 in1043.0 mb 0.00 in0.0 mm 0.00 in0.0 mm 0.00 in0.0 mm
11:30 AM 34.0°F1.1°C 21.1°F-6.1°C 59% 8.0 mph ESE12.9 kmh ESE 16.5 mph26.6 kmh 30.80 in1043.0 mb 0.00 in0.0 mm 0.00 in0.0 mm 0.00 in0.0 mm
11:45 AM 34.3°F1.3°C 20.7°F-6.3°C 57% 8.2 mph SE13.2 kmh SE 15.7 mph25.3 kmh 30.80 in1043.0 mb 0.00 in0.0 mm 0.00 in0.0 mm 0.00 in0.0 mm
12:00 PM 34.5°F1.4°C 20.8°F-6.2°C 57% 8.5 mph SE13.7 kmh SE 17.2 mph27.7 kmh 30.80 in1043.0 mb 0.00 in0.0 mm 0.00 in0.0 mm 0.00 in0.0 mm
12:15 PM 34.7°F1.5°C 20.6°F-6.3°C 56% 7.8 mph SE12.6 kmh SE 21.8 mph35.1 kmh 30.83 in1044.0 mb 0.00 in0.0 mm 0.00 in0.0 mm 0.00 in0.0 mm
12:29 PM 34.9°F1.6°C 20.3°F-6.5°C 55% 9.6 mph SE15.4 kmh SE 11.9 mph19.2 kmh 30.80 in1043.0 mb 0.00 in0.0 mm 0.00 in0.0 mm 0.00 in0.0 mm
12:30 PM 34.9°F1.6°C 20.8°F-6.2°C 56% 8.0 mph ESE12.9 kmh ESE 11.8 mph19.0 kmh 30.80 in1043.0 mb 0.00 in0.0 mm 0.00 in0.0 mm 0.00 in0.0 mm
12:31 PM 35.1°F1.7°C 20.9°F-6.2°C 56% 7.8 mph SE12.6 kmh SE 11.8 mph19.0 kmh 30.80 in1043.0 mb 0.00 in0.0 mm 0.00 in0.0 mm 0.00 in0.0 mm
12:45 PM 35.6°F2.0°C 21.0°F-6.1°C 55% 8.0 mph ESE12.9 kmh ESE 20.4 mph32.8 kmh 30.80 in1043.0 mb 0.00 in0.0 mm 0.00 in0.0 mm 0.00 in0.0 mm
01:00 PM 35.8°F2.1°C 20.7°F-6.3°C 54% 8.0 mph ESE12.9 kmh ESE 17.5 mph28.2 kmh 30.83 in1044.0 mb 0.00 in0.0 mm 0.00 in0.0 mm 0.00 in0.0 mm
01:15 PM 35.8°F2.1°C 20.7°F-6.3°C 54% 5.8 mph SE9.3 kmh SE 15.0 mph24.1 kmh 30.83 in1044.0 mb 0.00 in0.0 mm 0.00 in0.0 mm 0.00 in0.0 mm
01:30 PM 35.2°F1.8°C 20.2°F-6.6°C 54% 5.7 mph SE9.2 kmh SE 12.9 mph20.8 kmh 30.83 in1044.0 mb 0.00 in0.0 mm 0.00 in0.0 mm 0.00 in0.0 mm
01:45 PM 35.8°F2.1°C 21.2°F-6.0°C 55% 5.9 mph SE9.5 kmh SE 14.7 mph23.7 kmh 30.80 in1043.0 mb 0.00 in0.0 mm 0.00 in0.0 mm 0.00 in0.0 mm
02:00 PM 36.3°F2.4°C 21.7°F-5.7°C 55% 5.1 mph SSE8.2 kmh SSE 12.5 mph20.1 kmh 30.80 in1043.0 mb 0.00 in0.0 mm 0.00 in0.0 mm 0.00 in0.0 mm
02:15 PM 36.3°F2.4°C 21.2°F-6.0°C 54% 6.1 mph SE9.8 kmh SE 13.6 mph21.9 kmh 30.80 in1043.0 mb 0.00 in0.0 mm 0.00 in0.0 mm 0.00 in0.0 mm
02:30 PM 36.3°F2.4°C 20.8°F-6.2°C 53% 7.0 mph SE11.3 kmh SE 13.6 mph21.9 kmh 30.80 in1043.0 mb 0.00 in0.0 mm 0.00 in0.0 mm 0.00 in0.0 mm
02:45 PM 36.0°F2.2°C 20.9°F-6.2°C 54% 5.9 mph SE9.5 kmh SE 14.0 mph22.5 kmh 30.80 in1043.0 mb 0.00 in0.0 mm 0.00 in0.0 mm 0.00 in0.0 mm
03:00 PM 36.0°F2.2°C 21.3°F-5.9°C 55% 5.6 mph S9.0 kmh S 10.4 mph16.7 kmh 30.80 in1043.0 mb 0.00 in0.0 mm 0.00 in0.0 mm 0.00 in0.0 mm
03:15 PM 36.1°F2.3°C 21.5°F-5.8°C 55% 4.3 mph S6.9 kmh S 9.3 mph15.0 kmh 30.80 in1043.0 mb 0.00 in0.0 mm 0.00 in0.0 mm 0.00 in0.0 mm
03:30 PM 36.1°F2.3°C 21.1°F-6.1°C 54% 6.9 mph SSE11.1 kmh SSE 17.2 mph27.7 kmh 30.80 in1043.0 mb 0.00 in0.0 mm 0.00 in0.0 mm 0.00 in0.0 mm
03:45 PM 35.6°F2.0°C 21.0°F-6.1°C 55% 5.0 mph SSE8.0 kmh SSE 15.0 mph24.1 kmh 30.77 in1042.0 mb 0.00 in0.0 mm 0.00 in0.0 mm 0.00 in0.0 mm
04:00 PM 35.2°F1.8°C 20.7°F-6.3°C 55% 2.3 mph S3.7 kmh S 9.3 mph15.0 kmh 30.80 in1043.0 mb 0.00 in0.0 mm 0.00 in0.0 mm 0.00 in0.0 mm
04:15 PM 35.2°F1.8°C 21.1°F-6.1°C 56% 2.2 mph S3.5 kmh S 7.5 mph12.1 kmh 30.83 in1044.0 mb 0.00 in0.0 mm 0.00 in0.0 mm 0.00 in0.0 mm
04:30 PM 35.1°F1.7°C 20.9°F-6.2°C 56% 2.6 mph S4.2 kmh S 7.5 mph12.1 kmh 30.80 in1043.0 mb 0.00 in0.0 mm 0.00 in0.0 mm 0.00 in0.0 mm
04:45 PM 34.5°F1.4°C 20.8°F-6.2°C 57% 2.3 mph SSW3.7 kmh SSW 6.1 mph9.8 kmh 30.83 in1044.0 mb 0.00 in0.0 mm 0.00 in0.0 mm 0.00 in0.0 mm
05:00 PM 34.0°F1.1°C 20.7°F-6.3°C 58% 0.6 mph S1.0 kmh S 4.7 mph7.6 kmh 30.83 in1044.0 mb 0.00 in0.0 mm 0.00 in0.0 mm 0.00 in0.0 mm
05:15 PM 34.0°F1.1°C 21.1°F-6.1°C 59% 0.7 mph S1.1 kmh S 5.0 mph8.0 kmh 30.83 in1044.0 mb 0.00 in0.0 mm 0.00 in0.0 mm 0.00 in0.0 mm
05:30 PM 34.2°F1.2°C 21.7°F-5.7°C 60% Calm Calm -- 30.83 in1044.0 mb 0.00 in0.0 mm 0.00 in0.0 mm 0.00 in0.0 mm
05:45 PM 34.2°F1.2°C 22.1°F-5.5°C 61% 0.6 mph S1.0 kmh S 5.4 mph8.7 kmh 30.83 in1044.0 mb 0.00 in0.0 mm 0.00 in0.0 mm 0.00 in0.0 mm
06:00 PM 34.2°F1.2°C 22.5°F-5.3°C 62% 0.2 mph S0.3 kmh S 4.7 mph7.6 kmh 30.83 in1044.0 mb 0.00 in0.0 mm 0.00 in0.0 mm 0.00 in0.0 mm
06:15 PM 34.2°F1.2°C 22.9°F-5.1°C 63% 0.6 mph S1.0 kmh S 6.1 mph9.8 kmh 30.83 in1044.0 mb 0.00 in0.0 mm 0.00 in0.0 mm 0.00 in0.0 mm
06:30 PM 34.2°F1.2°C 22.9°F-5.1°C 63% 0.5 mph S0.8 kmh S 4.3 mph6.9 kmh 30.83 in1044.0 mb 0.00 in0.0 mm 0.00 in0.0 mm 0.00 in0.0 mm
06:45 PM 34.2°F1.2°C 23.2°F-4.9°C 64% 1.1 mph SSE1.8 kmh SSE 7.2 mph11.6 kmh 30.83 in1044.0 mb 0.00 in0.0 mm 0.00 in0.0 mm 0.00 in0.0 mm
07:00 PM 34.0°F1.1°C 23.1°F-4.9°C 64% 1.1 mph S1.8 kmh S 7.9 mph12.7 kmh 30.80 in1043.0 mb 0.00 in0.0 mm 0.00 in0.0 mm 0.00 in0.0 mm
07:15 PM 34.0°F1.1°C 23.1°F-4.9°C 64% 1.2 mph SSE1.9 kmh SSE 9.3 mph15.0 kmh 30.80 in1043.0 mb 0.00 in0.0 mm 0.00 in0.0 mm 0.00 in0.0 mm
07:30 PM 33.8°F1.0°C 22.9°F-5.1°C 64% 1.9 mph SE3.1 kmh SE 7.5 mph12.1 kmh 30.80 in1043.0 mb 0.00 in0.0 mm 0.00 in0.0 mm 0.00 in0.0 mm
07:45 PM 33.8°F1.0°C 23.3°F-4.8°C 65% 2.0 mph S3.2 kmh S 10.4 mph16.7 kmh 30.80 in1043.0 mb 0.00 in0.0 mm 0.00 in0.0 mm 0.00 in0.0 mm
08:00 PM 34.0°F1.1°C 23.4°F-4.8°C 65% 3.1 mph SSW5.0 kmh SSW 10.0 mph16.1 kmh 30.83 in1044.0 mb 0.00 in0.0 mm 0.00 in0.0 mm 0.00 in0.0 mm
08:15 PM 34.2°F1.2°C 23.6°F-4.7°C 65% 2.7 mph S4.3 kmh S 7.9 mph12.7 kmh 30.83 in1044.0 mb 0.00 in0.0 mm 0.00 in0.0 mm 0.00 in0.0 mm
08:27 PM 34.2°F1.2°C 23.6°F-4.7°C 65% 5.8 mph WSW9.3 kmh WSW 9.3 mph15.0 kmh 30.83 in1044.0 mb 0.00 in0.0 mm 0.00 in0.0 mm 0.00 in0.0 mm
08:28 PM 34.2°F1.2°C 23.6°F-4.7°C 65% 4.9 mph SW7.9 kmh SW 9.3 mph15.0 kmh 30.83 in1044.0 mb 0.00 in0.0 mm 0.00 in0.0 mm 0.00 in0.0 mm
08:29 PM 34.2°F1.2°C 23.6°F-4.7°C 65% 4.0 mph SW6.4 kmh SW 9.3 mph15.0 kmh 30.83 in1044.0 mb 0.00 in0.0 mm 0.00 in0.0 mm 0.00 in0.0 mm
08:30 PM 34.2°F1.2°C 23.6°F-4.7°C 65% 4.0 mph WSW6.4 kmh WSW 9.3 mph15.0 kmh 30.83 in1044.0 mb 0.00 in0.0 mm 0.00 in0.0 mm 0.00 in0.0 mm
08:31 PM 34.2°F1.2°C 23.6°F-4.7°C 65% 3.6 mph WSW5.8 kmh WSW 9.3 mph15.0 kmh 30.83 in1044.0 mb 0.00 in0.0 mm 0.00 in0.0 mm 0.00 in0.0 mm
08:45 PM 34.2°F1.2°C 23.2°F-4.9°C 64% 4.7 mph S7.6 kmh S 11.8 mph19.0 kmh 30.83 in1044.0 mb 0.00 in0.0 mm 0.00 in0.0 mm 0.00 in0.0 mm
09:00 PM 33.8°F1.0°C 22.9°F-5.1°C 64% 4.3 mph S6.9 kmh S 9.7 mph15.6 kmh 30.83 in1044.0 mb 0.00 in0.0 mm 0.00 in0.0 mm 0.00 in0.0 mm
09:15 PM 33.6°F0.9°C 23.1°F-4.9°C 65% 4.6 mph S7.4 kmh S 17.2 mph27.7 kmh 30.83 in1044.0 mb 0.00 in0.0 mm 0.00 in0.0 mm 0.00 in0.0 mm
09:30 PM 33.3°F0.7°C 23.1°F-4.9°C 66% 3.5 mph S5.6 kmh S 7.9 mph12.7 kmh 30.80 in1043.0 mb 0.00 in0.0 mm 0.00 in0.0 mm 0.00 in0.0 mm
09:45 PM 33.3°F0.7°C 23.5°F-4.7°C 67% 4.3 mph SW6.9 kmh SW 10.4 mph16.7 kmh 30.83 in1044.0 mb 0.00 in0.0 mm 0.00 in0.0 mm 0.00 in0.0 mm
10:00 PM 33.6°F0.9°C 23.8°F-4.6°C 67% 4.9 mph SW7.9 kmh SW 9.3 mph15.0 kmh 30.83 in1044.0 mb 0.00 in0.0 mm 0.00 in0.0 mm 0.00 in0.0 mm
10:15 PM 33.8°F1.0°C 23.6°F-4.7°C 66% 5.3 mph S8.5 kmh S 12.2 mph19.6 kmh 30.80 in1043.0 mb 0.00 in0.0 mm 0.00 in0.0 mm 0.00 in0.0 mm
10:30 PM 34.0°F1.1°C 23.4°F-4.8°C 65% 5.9 mph S9.5 kmh S 12.2 mph19.6 kmh 30.80 in1043.0 mb 0.00 in0.0 mm 0.00 in0.0 mm 0.00 in0.0 mm
10:45 PM 33.8°F1.0°C 23.3°F-4.8°C 65% 5.1 mph S8.2 kmh S 9.7 mph15.6 kmh 30.86 in1045.0 mb 0.00 in0.0 mm 0.00 in0.0 mm 0.00 in0.0 mm
11:00 PM 33.4°F0.8°C 22.9°F-5.1°C 65% 6.6 mph S10.6 kmh S 16.8 mph27.0 kmh 30.83 in1044.0 mb 0.00 in0.0 mm 0.00 in0.0 mm 0.00 in0.0 mm
11:15 PM 33.3°F0.7°C 23.1°F-4.9°C 66% 6.1 mph S9.8 kmh S 16.1 mph25.9 kmh 30.80 in1043.0 mb 0.00 in0.0 mm 0.00 in0.0 mm 0.00 in0.0 mm
11:30 PM 32.9°F0.5°C 22.8°F-5.1°C 66% 5.6 mph SSW9.0 kmh SSW 11.5 mph18.5 kmh 30.83 in1044.0 mb 0.00 in0.0 mm 0.00 in0.0 mm 0.00 in0.0 mm
11:45 PM 33.1°F0.6°C 23.3°F-4.8°C 67% 4.5 mph S7.2 kmh S 8.6 mph13.8 kmh 30.83 in1044.0 mb 0.00 in0.0 mm 0.00 in0.0 mm 0.00 in0.0 mm